createdAt,value
2018-01-06T00:01:36.870Z,2.70
2018-01-06T00:04:05.836Z,2.80
2018-01-06T00:06:34.916Z,2.55
2018-01-06T00:09:03.991Z,2.53
2018-01-06T00:11:32.911Z,2.72
2018-01-06T00:14:01.785Z,2.40
2018-01-06T00:16:30.732Z,2.95
2018-01-06T00:18:59.659Z,3.12
2018-01-06T00:21:28.524Z,2.78
2018-01-06T00:23:57.511Z,2.25
2018-01-06T00:26:26.388Z,2.75
2018-01-06T00:28:55.263Z,2.17
2018-01-06T00:31:24.120Z,2.40
2018-01-06T00:33:53.059Z,2.72
2018-01-06T00:36:21.922Z,2.70
2018-01-06T00:38:50.800Z,2.35
2018-01-06T00:41:19.670Z,2.50
2018-01-06T00:43:48.519Z,2.00
2018-01-06T00:46:17.395Z,2.30
2018-01-06T00:48:46.316Z,2.37
2018-01-06T00:51:15.176Z,2.60
2018-01-06T00:53:44.054Z,3.12
2018-01-06T00:56:12.904Z,2.75
2018-01-06T00:58:41.772Z,2.37
2018-01-06T01:01:10.644Z,2.58
2018-01-06T01:03:39.526Z,2.40
2018-01-06T01:06:08.387Z,2.40
2018-01-06T01:08:37.266Z,2.10
2018-01-06T01:11:06.124Z,2.00
2018-01-06T01:13:34.991Z,2.80
2018-01-06T01:16:03.859Z,2.50
2018-01-06T01:18:32.735Z,1.87
2018-01-06T01:21:01.658Z,2.53
2018-01-06T01:23:30.631Z,2.42
2018-01-06T01:25:59.622Z,2.70
2018-01-06T01:28:28.599Z,2.60
2018-01-06T01:30:57.690Z,2.40
2018-01-06T01:33:26.645Z,2.85
2018-01-06T01:35:56.672Z,2.03
2018-01-06T01:38:25.579Z,2.35
2018-01-06T01:40:54.792Z,2.50
2018-01-06T01:43:23.723Z,2.83
2018-01-06T01:45:52.592Z,2.70
2018-01-06T01:48:21.460Z,2.08
2018-01-06T01:50:50.316Z,2.15
2018-01-06T01:53:19.275Z,2.55
2018-01-06T01:55:48.133Z,2.42
2018-01-06T01:58:17.004Z,2.20
2018-01-06T02:00:45.864Z,2.47
2018-01-06T02:03:14.727Z,2.60
2018-01-06T02:05:43.579Z,2.20
2018-01-06T02:08:12.447Z,2.10
2018-01-06T02:10:41.334Z,2.12
2018-01-06T02:13:10.189Z,2.42
2018-01-06T02:15:39.068Z,2.40
2018-01-06T02:18:07.932Z,2.15
2018-01-06T02:20:36.808Z,2.33
2018-01-06T02:23:05.784Z,1.80
2018-01-06T02:25:34.647Z,2.17
2018-01-06T02:28:03.614Z,2.15
2018-01-06T02:30:32.526Z,2.25
2018-01-06T02:33:01.550Z,2.25
2018-01-06T02:35:30.499Z,2.40
2018-01-06T02:37:59.453Z,2.20
2018-01-06T02:40:28.520Z,2.37
2018-01-06T02:42:57.629Z,1.70
2018-01-06T02:45:26.482Z,1.87
2018-01-06T02:47:55.345Z,2.35
2018-01-06T02:50:24.282Z,2.03
2018-01-06T02:52:53.138Z,2.20
2018-01-06T02:55:22.843Z,1.83
2018-01-06T02:57:51.707Z,2.33
2018-01-06T03:00:20.581Z,1.90
2018-01-06T03:02:49.437Z,2.20
2018-01-06T03:05:18.304Z,1.62
2018-01-06T03:07:47.183Z,1.75
2018-01-06T03:10:16.055Z,1.83
2018-01-06T03:12:44.983Z,2.00
2018-01-06T03:15:13.852Z,1.80
2018-01-06T03:17:42.723Z,1.70
2018-01-06T03:20:11.579Z,1.95
2018-01-06T03:22:40.455Z,1.77
2018-01-06T03:25:09.321Z,1.95
2018-01-06T03:27:38.213Z,2.25
2018-01-06T03:30:07.077Z,2.08
2018-01-06T03:32:35.943Z,2.05
2018-01-06T03:35:04.829Z,1.60
2018-01-06T03:37:33.683Z,1.85
2018-01-06T03:40:02.599Z,1.77
2018-01-06T03:42:31.459Z,1.73
2018-01-06T03:45:00.443Z,1.77
2018-01-06T03:47:29.383Z,1.60
2018-01-06T03:49:58.331Z,2.15
2018-01-06T03:52:27.372Z,2.10
2018-01-06T03:54:56.562Z,1.73
2018-01-06T03:57:26.230Z,1.60
2018-01-06T03:59:55.083Z,2.00
2018-01-06T04:02:24.050Z,1.77
2018-01-06T04:04:52.899Z,2.35
2018-01-06T04:07:21.764Z,1.50
2018-01-06T04:09:50.644Z,1.83
2018-01-06T04:12:19.579Z,1.80
2018-01-06T04:14:48.460Z,1.60
2018-01-06T04:17:17.329Z,1.73
2018-01-06T04:19:46.198Z,2.08
2018-01-06T04:22:15.072Z,1.70
2018-01-06T04:24:43.931Z,1.90
2018-01-06T04:27:12.800Z,2.00
2018-01-06T04:29:41.660Z,2.10
2018-01-06T04:32:10.517Z,1.90
2018-01-06T04:34:39.379Z,1.87
2018-01-06T04:37:08.259Z,1.70
2018-01-06T04:39:37.115Z,2.00
2018-01-06T04:42:06.058Z,1.48
2018-01-06T04:44:34.917Z,1.35
2018-01-06T04:47:03.840Z,2.00
2018-01-06T04:49:32.700Z,1.70
2018-01-06T04:52:01.576Z,1.60
2018-01-06T04:54:30.434Z,1.77
2018-01-06T04:56:59.300Z,1.80
2018-01-06T04:59:28.174Z,2.22
2018-01-06T05:01:57.067Z,2.00
2018-01-06T05:04:25.973Z,1.70
2018-01-06T05:06:54.996Z,1.62
2018-01-06T05:09:24.024Z,1.60
2018-01-06T05:11:53.011Z,1.92
2018-01-06T05:14:22.059Z,1.65
2018-01-06T05:16:51.124Z,1.52
2018-01-06T05:19:20.765Z,1.60
2018-01-06T05:21:49.744Z,1.50
2018-01-06T05:24:18.622Z,1.75
2018-01-06T05:26:47.523Z,1.60
2018-01-06T05:29:16.398Z,1.70
2018-01-06T05:31:45.263Z,1.70
2018-01-06T05:34:14.131Z,1.60
2018-01-06T05:36:42.989Z,1.65
2018-01-06T05:39:11.861Z,1.62
2018-01-06T05:41:40.715Z,1.85
2018-01-06T05:44:09.592Z,1.70
2018-01-06T05:46:38.457Z,1.98
2018-01-06T05:49:07.328Z,1.90
2018-01-06T05:51:36.204Z,1.90
2018-01-06T05:54:05.075Z,1.70
2018-01-06T05:56:33.983Z,2.00
2018-01-06T05:59:02.855Z,1.85
2018-01-06T06:01:31.740Z,1.67
2018-01-06T06:04:00.656Z,2.08
2018-01-06T06:06:29.539Z,1.65
2018-01-06T06:08:58.490Z,1.85
2018-01-06T06:11:27.427Z,1.65
2018-01-06T06:13:56.357Z,1.65
2018-01-06T06:16:25.276Z,1.70
2018-01-06T06:18:54.232Z,1.75
2018-01-06T06:21:23.182Z,1.95
2018-01-06T06:23:52.108Z,2.03
2018-01-06T06:26:20.988Z,1.80
2018-01-06T06:28:49.954Z,1.98
2018-01-06T06:31:18.988Z,1.87
2018-01-06T06:33:47.852Z,1.60
2018-01-06T06:36:16.715Z,1.75
2018-01-06T06:38:45.591Z,1.77
2018-01-06T06:41:14.573Z,2.05
2018-01-06T06:43:43.516Z,1.40
2018-01-06T06:46:12.393Z,1.60
2018-01-06T06:48:41.295Z,1.85
2018-01-06T06:51:10.149Z,2.33
2018-01-06T06:53:39.011Z,1.67
2018-01-06T06:56:07.884Z,2.05
2018-01-06T06:58:36.851Z,1.83
2018-01-06T07:01:05.736Z,2.05
2018-01-06T07:03:34.620Z,1.90
2018-01-06T07:06:03.484Z,1.80
2018-01-06T07:08:32.341Z,1.92
2018-01-06T07:11:01.211Z,1.70
2018-01-06T07:13:30.075Z,2.30
2018-01-06T07:15:58.969Z,1.98
2018-01-06T07:18:27.843Z,1.95
2018-01-06T07:20:56.707Z,2.00
2018-01-06T07:23:25.572Z,2.08
2018-01-06T07:25:54.431Z,2.03
2018-01-06T07:28:23.309Z,1.95
2018-01-06T07:30:52.177Z,1.70
2018-01-06T07:33:21.028Z,2.50
2018-01-06T07:35:49.920Z,2.10
2018-01-06T07:38:18.803Z,1.73
2018-01-06T07:40:47.679Z,2.17
2018-01-06T07:43:16.597Z,1.90
2018-01-06T07:45:45.536Z,2.12
2018-01-06T07:48:14.519Z,1.50
2018-01-06T07:50:43.445Z,1.70
2018-01-06T07:53:12.416Z,2.42
2018-01-06T07:55:41.326Z,2.20
2018-01-06T07:58:10.340Z,1.85
2018-01-06T08:00:39.367Z,2.05
2018-01-06T08:03:08.316Z,2.03
2018-01-06T08:05:37.197Z,2.42
2018-01-06T08:08:06.187Z,1.70
2018-01-06T08:10:35.060Z,1.73
2018-01-06T08:13:03.963Z,2.28
2018-01-06T08:15:32.824Z,1.87
2018-01-06T08:18:01.699Z,2.33
2018-01-06T08:20:30.592Z,2.30
2018-01-06T08:22:59.571Z,1.90
2018-01-06T08:25:28.501Z,1.58
2018-01-06T08:27:57.359Z,1.83
2018-01-06T08:30:26.222Z,2.10
2018-01-06T08:32:55.131Z,1.70
2018-01-06T08:35:24.019Z,1.95
2018-01-06T08:37:53.166Z,2.10
2018-01-06T08:40:22.189Z,2.00
2018-01-06T08:42:51.102Z,1.85
2018-01-06T08:45:20.184Z,1.80
2018-01-06T08:47:49.123Z,1.87
2018-01-06T08:50:18.094Z,1.83
2018-01-06T08:52:46.959Z,2.00
2018-01-06T08:55:15.834Z,1.90
2018-01-06T08:57:44.974Z,1.60
2018-01-06T09:00:13.951Z,1.65
2018-01-06T09:02:42.827Z,1.85
2018-01-06T09:05:11.683Z,1.60
2018-01-06T09:07:40.592Z,2.05
2018-01-06T09:10:09.456Z,1.62
2018-01-06T09:12:38.331Z,1.85
2018-01-06T09:15:07.209Z,1.70
2018-01-06T09:17:36.074Z,1.75
2018-01-06T09:20:04.944Z,1.92
2018-01-06T09:22:34.018Z,1.73
2018-01-06T09:25:02.867Z,1.60
2018-01-06T09:27:31.799Z,1.80
2018-01-06T09:30:00.770Z,1.80
2018-01-06T09:32:29.643Z,2.15
2018-01-06T09:34:58.512Z,1.90
2018-01-06T09:37:27.582Z,1.60
2018-01-06T09:39:56.463Z,2.20
2018-01-06T09:42:25.436Z,1.70
2018-01-06T09:44:54.433Z,2.00
2018-01-06T09:47:23.346Z,2.00
2018-01-06T09:49:52.269Z,1.80
2018-01-06T09:52:21.206Z,1.90
2018-01-06T09:54:50.085Z,2.05
2018-01-06T09:57:18.957Z,2.25
2018-01-06T09:59:47.887Z,3.17
2018-01-06T10:02:16.751Z,4.95
2018-01-06T10:04:45.631Z,3.20
2018-01-06T10:07:14.519Z,3.20
2018-01-06T10:09:43.472Z,3.10
2018-01-06T10:12:12.759Z,4.62
2018-01-06T10:14:41.652Z,5.90
2018-01-06T10:17:10.620Z,11.47
2018-01-06T10:19:39.492Z,5.95
2018-01-06T10:22:08.367Z,6.50
2018-01-06T10:24:37.396Z,4.43
2018-01-06T10:27:06.280Z,3.90
2018-01-06T10:29:35.153Z,3.50
2018-01-06T10:32:04.110Z,3.60
2018-01-06T10:34:33.057Z,5.15
2018-01-06T10:37:01.925Z,4.87
2018-01-06T10:39:30.876Z,4.15
2018-01-06T10:41:59.779Z,6.47
2018-01-06T10:44:28.729Z,5.40
2018-01-06T10:46:57.817Z,5.53
2018-01-06T10:49:26.668Z,4.43
2018-01-06T10:51:55.557Z,4.05
2018-01-06T10:54:24.416Z,4.05
2018-01-06T10:56:53.284Z,3.55
2018-01-06T10:59:22.233Z,3.28
2018-01-06T11:01:56.827Z,4.20
2018-01-06T11:04:25.705Z,3.47
2018-01-06T11:06:54.574Z,3.45
2018-01-06T11:09:23.456Z,3.83
2018-01-06T11:11:52.321Z,3.20
2018-01-06T11:14:21.240Z,3.17
2018-01-06T11:16:50.119Z,4.45
2018-01-06T11:19:18.972Z,2.58
2018-01-06T11:21:47.877Z,2.33
2018-01-06T11:24:16.861Z,2.50
2018-01-06T11:26:45.757Z,2.75
2018-01-06T11:29:14.729Z,3.58
2018-01-06T11:31:44.033Z,2.90
2018-01-06T11:34:13.042Z,2.20
2018-01-06T11:36:42.202Z,2.97
2018-01-06T11:39:21.101Z,2.33
2018-01-06T11:41:49.975Z,2.60
2018-01-06T11:44:18.835Z,3.00
2018-01-06T11:46:47.703Z,2.30
2018-01-06T11:49:16.656Z,3.00
2018-01-06T11:51:45.527Z,2.80
2018-01-06T11:54:14.415Z,2.90
2018-01-06T11:56:43.301Z,3.15
2018-01-06T11:59:12.188Z,2.90
2018-01-06T12:01:41.111Z,3.00
2018-01-06T12:04:10.099Z,3.47
2018-01-06T12:06:38.973Z,2.70
2018-01-06T12:09:07.843Z,2.50
2018-01-06T12:11:36.880Z,2.97
2018-01-06T12:14:05.835Z,2.47
2018-01-06T12:16:34.789Z,2.60
2018-01-06T12:19:03.661Z,3.17
2018-01-06T12:21:32.573Z,2.50
2018-01-06T12:24:01.471Z,2.87
2018-01-06T12:26:30.412Z,2.80
2018-01-06T12:28:59.278Z,2.95
2018-01-06T12:31:28.267Z,3.00
2018-01-06T12:33:57.116Z,2.85
2018-01-06T12:36:25.999Z,4.60
2018-01-06T12:38:55.002Z,2.75
2018-01-06T12:41:23.875Z,2.87
2018-01-06T12:43:52.741Z,3.00
2018-01-06T12:46:21.635Z,2.92
2018-01-06T12:48:50.483Z,2.87
2018-01-06T12:51:19.384Z,2.95
2018-01-06T12:53:48.343Z,2.85
2018-01-06T12:56:17.341Z,3.10
2018-01-06T12:58:46.207Z,2.50
2018-01-06T13:01:15.065Z,2.70
2018-01-06T13:03:43.941Z,2.60
2018-01-06T13:06:12.808Z,2.50
2018-01-06T13:08:41.700Z,2.70
2018-01-06T13:11:10.665Z,2.45
2018-01-06T13:13:39.629Z,4.57
2018-01-06T13:16:08.538Z,4.20
2018-01-06T13:18:37.532Z,3.80
2018-01-06T13:21:06.427Z,7.30
2018-01-06T13:23:35.305Z,5.50
2018-01-06T13:26:04.354Z,4.05
2018-01-06T13:28:33.239Z,6.68
2018-01-06T13:31:02.100Z,4.07
2018-01-06T13:33:31.054Z,3.83
2018-01-06T13:35:59.940Z,3.80
2018-01-06T13:38:28.808Z,3.78
2018-01-06T13:40:57.807Z,4.80
2018-01-06T13:43:26.798Z,4.10
2018-01-06T13:45:55.672Z,4.03
2018-01-06T13:48:24.552Z,5.83
2018-01-06T13:50:53.469Z,3.50
2018-01-06T13:53:22.344Z,4.10
2018-01-06T13:55:51.232Z,4.43
2018-01-06T13:58:20.181Z,4.47
2018-01-06T14:00:49.151Z,25.02
2018-01-06T14:03:18.205Z,30.10
2018-01-06T14:05:47.417Z,21.93
2018-01-06T14:08:16.300Z,22.10
2018-01-06T14:10:45.179Z,15.77
2018-01-06T14:13:14.110Z,16.37
2018-01-06T14:15:43.071Z,15.03
2018-01-06T14:18:11.944Z,13.40
2018-01-06T14:20:40.836Z,15.50
2018-01-06T14:23:09.808Z,13.40
2018-01-06T14:25:38.720Z,12.05
2018-01-06T14:28:07.604Z,11.48
2018-01-06T14:30:36.577Z,11.05
2018-01-06T14:33:05.445Z,11.18
2018-01-06T14:35:35.200Z,10.35
2018-01-06T14:38:04.080Z,9.77
2018-01-06T14:40:32.982Z,7.90
2018-01-06T14:43:01.857Z,8.97
2018-01-06T14:45:30.724Z,8.70
2018-01-06T14:47:59.725Z,8.38
2018-01-06T14:50:28.674Z,8.05
2018-01-06T14:52:57.612Z,8.65
2018-01-06T14:55:26.543Z,6.57
2018-01-06T14:57:55.564Z,9.60
2018-01-06T15:00:24.424Z,12.02
2018-01-06T15:02:53.452Z,11.77
2018-01-06T15:05:22.595Z,8.32
2018-01-06T15:07:51.507Z,8.05
2018-01-06T15:10:20.389Z,7.70
2018-01-06T15:12:49.340Z,7.60
2018-01-06T15:15:18.212Z,7.57
2018-01-06T15:17:47.091Z,6.90
2018-01-06T15:20:25.896Z,5.15
2018-01-06T15:22:54.779Z,6.85
2018-01-06T15:25:23.855Z,5.55
2018-01-06T15:27:52.763Z,5.95
2018-01-06T15:30:21.591Z,5.82
2018-01-06T15:32:50.525Z,5.68
2018-01-06T15:35:19.419Z,4.93
2018-01-06T15:37:48.354Z,4.70
2018-01-06T15:40:17.412Z,4.87
2018-01-06T15:42:46.382Z,6.12
2018-01-06T15:45:15.353Z,4.87
2018-01-06T15:47:44.263Z,5.00
2018-01-06T15:50:13.236Z,4.77
2018-01-06T15:52:42.109Z,4.10
2018-01-06T15:55:10.982Z,5.00
2018-01-06T15:57:40.012Z,4.13
